createdAt,value
2023-02-13T00:01:26.002Z,102953.16
2023-02-13T00:03:54.639Z,102956.72
2023-02-13T00:06:23.169Z,102943.44
2023-02-13T00:08:51.792Z,102958.47
2023-02-13T00:11:20.859Z,102954.06
2023-02-13T00:13:49.709Z,102953.19
2023-02-13T00:16:18.084Z,102953.22
2023-02-13T00:18:46.658Z,102954.09
2023-02-13T00:21:15.353Z,102956.75
2023-02-13T00:23:43.904Z,102954.09
2023-02-13T00:26:14.576Z,102959.41
2023-02-13T00:28:46.140Z,102958.53
2023-02-13T00:31:17.204Z,102963.84
2023-02-13T00:33:46.292Z,102967.38
2023-02-13T00:36:19.264Z,102967.38
2023-02-13T00:38:47.851Z,102967.38
2023-02-13T00:41:17.602Z,102974.44
2023-02-13T00:43:47.142Z,102974.44
2023-02-13T00:46:16.683Z,102980.66
2023-02-13T00:48:45.322Z,102976.25
2023-02-13T00:51:13.793Z,102970.94
2023-02-13T00:53:42.337Z,102971.84
2023-02-13T00:56:10.727Z,102974.47
2023-02-13T00:58:39.697Z,102979.78
2023-02-13T01:01:07.958Z,102976.25
2023-02-13T01:03:36.847Z,102978.03
2023-02-13T01:06:05.654Z,102985.97
2023-02-13T01:08:34.878Z,102975.38
2023-02-13T01:11:03.172Z,102979.78
2023-02-13T01:13:31.841Z,102982.44
2023-02-13T01:16:00.120Z,102973.59
2023-02-13T01:18:29.249Z,102981.56
2023-02-13T01:21:04.160Z,102981.56
2023-02-13T01:23:34.398Z,102985.09
2023-02-13T01:26:07.192Z,102978.91
2023-02-13T01:28:35.921Z,102976.25
2023-02-13T01:31:06.255Z,102979.81
2023-02-13T01:33:36.272Z,102988.66
2023-02-13T01:36:12.046Z,102977.16
2023-02-13T01:38:41.445Z,102977.16
2023-02-13T01:41:10.934Z,102975.38
2023-02-13T01:43:45.566Z,102991.31
2023-02-13T01:46:18.738Z,102978.91
2023-02-13T01:48:48.647Z,102978.03
2023-02-13T01:51:20.843Z,102974.50
2023-02-13T01:53:59.959Z,102971.84
2023-02-13T01:56:34.487Z,102971.84
2023-02-13T01:59:08.989Z,102970.06
2023-02-13T02:01:37.664Z,102973.59
2023-02-13T02:04:22.779Z,102968.31
2023-02-13T02:07:00.452Z,102966.53
2023-02-13T02:09:35.293Z,102967.41
2023-02-13T02:12:27.013Z,102966.56
2023-02-13T02:14:58.222Z,102976.28
2023-02-13T02:17:27.976Z,102967.44
2023-02-13T02:20:17.787Z,102966.56
2023-02-13T02:23:38.432Z,102965.66
2023-02-13T02:26:30.920Z,102963.00
2023-02-13T02:29:24.000Z,102958.59
2023-02-13T02:32:20.119Z,102960.34
2023-02-13T02:35:12.271Z,102957.72
2023-02-13T02:38:02.812Z,102962.13
2023-02-13T02:40:43.762Z,102957.69
2023-02-13T02:43:24.849Z,102959.47
2023-02-13T02:46:35.306Z,102955.03
2023-02-13T02:49:26.841Z,102953.28
2023-02-13T02:52:20.781Z,102948.84
2023-02-13T02:55:09.159Z,102942.66
2023-02-13T02:58:21.300Z,102944.47
2023-02-13T03:01:09.560Z,102948.88
2023-02-13T03:03:58.777Z,102949.75
2023-02-13T03:06:51.116Z,102946.22
2023-02-13T03:09:45.506Z,102949.75
2023-02-13T03:12:38.030Z,102932.06
2023-02-13T03:15:06.511Z,102947.09
2023-02-13T03:17:53.707Z,102939.13
2023-02-13T03:21:06.380Z,102948.84
2023-02-13T03:24:12.380Z,102946.19
2023-02-13T03:26:58.412Z,102948.84
2023-02-13T03:29:58.087Z,102955.03
2023-02-13T03:32:37.045Z,102948.84
2023-02-13T03:35:38.582Z,102950.63
2023-02-13T03:38:17.034Z,102953.28
2023-02-13T03:41:09.448Z,102949.75
2023-02-13T03:43:54.973Z,102947.94
2023-02-13T03:46:25.413Z,102949.75
2023-02-13T03:49:12.912Z,102951.47
2023-02-13T03:51:51.913Z,102951.47
2023-02-13T03:54:46.612Z,102947.94
2023-02-13T03:57:37.521Z,102951.47
2023-02-13T04:00:09.466Z,102947.94
2023-02-13T04:02:51.362Z,102944.38
2023-02-13T04:05:24.361Z,102947.94
2023-02-13T04:07:52.722Z,102953.22
2023-02-13T04:10:22.111Z,102955.88
2023-02-13T04:12:55.288Z,102958.53
2023-02-13T04:15:39.500Z,102950.56
2023-02-13T04:18:43.261Z,102965.59
2023-02-13T04:21:11.216Z,102957.63
2023-02-13T04:23:39.404Z,102949.72
2023-02-13T04:26:09.903Z,102954.13
2023-02-13T04:28:38.508Z,102958.53
2023-02-13T04:31:06.647Z,102962.06
2023-02-13T04:33:35.072Z,102958.53
2023-02-13T04:36:03.096Z,102953.22
2023-02-13T04:38:31.467Z,102962.06
2023-02-13T04:40:59.646Z,102963.84
2023-02-13T04:43:28.154Z,102965.63
2023-02-13T04:45:56.119Z,102963.88
2023-02-13T04:48:24.549Z,102965.69
2023-02-13T04:50:52.535Z,102962.13
2023-02-13T04:53:20.888Z,102961.25
2023-02-13T04:55:48.808Z,102955.03
2023-02-13T04:58:17.072Z,102955.06
2023-02-13T05:00:45.124Z,102958.56
2023-02-13T05:03:13.957Z,102956.78
2023-02-13T05:05:41.957Z,102949.69
2023-02-13T05:08:10.373Z,102962.03
2023-02-13T05:10:38.304Z,102964.66
2023-02-13T05:13:06.965Z,102968.19
2023-02-13T05:15:35.025Z,102957.53
2023-02-13T05:18:03.423Z,102964.63
2023-02-13T05:20:31.406Z,102969.00
2023-02-13T05:23:18.250Z,102967.22
2023-02-13T05:25:46.214Z,102961.84
2023-02-13T05:28:33.832Z,102965.38
2023-02-13T05:31:02.231Z,102961.84
2023-02-13T05:33:30.923Z,102973.25
2023-02-13T05:35:58.914Z,102977.66
2023-02-13T05:38:27.325Z,102964.28
2023-02-13T05:40:55.826Z,102968.63
2023-02-13T05:43:24.566Z,102970.44
2023-02-13T05:45:52.668Z,102981.00
2023-02-13T05:48:21.020Z,102983.66
2023-02-13T05:50:49.090Z,102984.50
2023-02-13T05:53:17.378Z,102993.38
2023-02-13T05:55:45.417Z,102977.38
2023-02-13T05:58:14.134Z,102986.22
2023-02-13T06:00:42.158Z,102990.69
2023-02-13T06:03:10.451Z,103000.50
2023-02-13T06:05:38.633Z,102998.78
2023-02-13T06:08:06.937Z,102996.09
2023-02-13T06:10:34.904Z,103000.53
2023-02-13T06:13:03.352Z,103002.31
2023-02-13T06:15:32.013Z,103013.00
2023-02-13T06:18:01.328Z,103021.88
2023-02-13T06:20:29.486Z,103021.91
2023-02-13T06:22:57.921Z,103023.69
2023-02-13T06:25:26.024Z,103023.75
2023-02-13T06:27:54.600Z,103026.44
2023-02-13T06:30:22.904Z,103024.72
2023-02-13T06:32:51.395Z,103030.88
2023-02-13T06:35:19.414Z,103027.38
2023-02-13T06:37:49.215Z,103022.06
2023-02-13T06:40:17.703Z,103030.94
2023-02-13T06:42:46.313Z,103022.06
2023-02-13T06:45:14.888Z,103027.41
2023-02-13T06:47:45.067Z,103022.09
2023-02-13T06:50:14.957Z,103030.97
2023-02-13T06:52:51.438Z,103037.19
2023-02-13T06:55:21.069Z,103027.44
2023-02-13T06:57:49.676Z,103031.00
2023-02-13T07:00:19.479Z,103027.47
2023-02-13T07:02:48.536Z,103041.63
2023-02-13T07:05:17.201Z,103045.22
2023-02-13T07:07:45.860Z,103045.22
2023-02-13T07:10:15.139Z,103036.38
2023-02-13T07:12:45.738Z,103048.75
2023-02-13T07:15:15.646Z,103045.22
2023-02-13T07:17:44.186Z,103047.88
2023-02-13T07:20:13.680Z,103049.66
2023-02-13T07:22:42.348Z,103045.22
2023-02-13T07:25:10.611Z,103046.09
2023-02-13T07:27:40.263Z,103052.31
2023-02-13T07:30:09.827Z,103047.88
2023-02-13T07:32:38.349Z,103053.22
2023-02-13T07:35:06.716Z,103054.09
2023-02-13T07:37:35.357Z,103048.78
2023-02-13T07:40:05.674Z,103055.88
2023-02-13T07:42:35.639Z,103054.09
2023-02-13T07:45:06.243Z,103055.84
2023-02-13T07:47:35.363Z,103057.63
2023-02-13T07:50:06.299Z,103059.41
2023-02-13T07:52:34.901Z,103055.88
2023-02-13T07:55:03.249Z,103049.69
2023-02-13T07:57:32.165Z,103052.34
2023-02-13T08:00:00.411Z,103052.34
2023-02-13T08:02:29.074Z,103047.03
2023-02-13T08:04:57.340Z,103048.78
2023-02-13T08:07:25.963Z,103047.00
2023-02-13T08:10:12.809Z,103049.66
2023-02-13T08:12:41.721Z,103051.44
2023-02-13T08:15:12.886Z,103045.28
2023-02-13T08:17:41.716Z,103049.69
2023-02-13T08:20:10.570Z,103055.88
2023-02-13T08:22:39.842Z,103046.16
2023-02-13T08:25:08.396Z,103050.56
2023-02-13T08:27:36.977Z,103043.50
2023-02-13T08:30:06.457Z,103039.94
2023-02-13T08:32:42.077Z,103042.59
2023-02-13T08:35:20.447Z,103031.97
2023-02-13T08:37:49.725Z,103039.06
2023-02-13T08:40:18.249Z,103038.19
2023-02-13T08:42:46.828Z,103025.78
2023-02-13T08:45:15.156Z,103048.78
2023-02-13T08:47:43.736Z,103038.19
2023-02-13T08:50:12.046Z,103037.28
2023-02-13T08:52:40.556Z,103040.84
2023-02-13T08:55:08.987Z,103038.19
2023-02-13T08:57:37.705Z,103038.19
2023-02-13T09:00:06.485Z,103043.50
2023-02-13T09:02:35.133Z,103038.19
2023-02-13T09:05:03.498Z,103037.31
2023-02-13T09:07:31.957Z,103027.56
2023-02-13T09:10:00.231Z,103025.81
2023-02-13T09:12:28.766Z,103032.00
2023-02-13T09:14:57.096Z,103025.81
2023-02-13T09:17:25.917Z,103029.34
2023-02-13T09:19:54.079Z,103027.56
2023-02-13T09:22:22.652Z,103025.81
2023-02-13T09:24:50.801Z,103032.00
2023-02-13T09:27:19.349Z,103028.47
2023-02-13T09:29:47.677Z,103026.69
2023-02-13T09:32:17.628Z,103026.69
2023-02-13T09:34:45.829Z,103033.78
2023-02-13T09:37:14.403Z,103031.09
2023-02-13T09:39:42.752Z,103038.16
2023-02-13T09:42:18.822Z,103017.84
2023-02-13T09:44:49.157Z,103025.78
2023-02-13T09:47:43.135Z,103032.88
2023-02-13T09:50:17.558Z,103018.72
2023-02-13T09:52:47.072Z,103021.38
2023-02-13T09:55:29.406Z,103029.34
2023-02-13T09:58:21.009Z,103024.91
2023-02-13T10:00:53.702Z,103023.16
2023-02-13T10:03:29.645Z,103016.94
2023-02-13T10:06:36.561Z,103032.00
2023-02-13T10:09:05.123Z,103020.50
2023-02-13T10:11:48.649Z,103010.75
2023-02-13T10:14:20.329Z,103008.97
2023-02-13T10:16:55.692Z,103023.16
2023-02-13T10:19:43.084Z,103015.19
2023-02-13T10:23:00.322Z,103013.41
2023-02-13T10:25:32.072Z,103018.72
2023-02-13T10:28:06.464Z,103020.50
2023-02-13T10:30:42.689Z,103015.19
2023-02-13T10:33:23.720Z,103006.31
2023-02-13T10:36:10.364Z,103007.19
2023-02-13T10:38:45.166Z,103002.78
2023-02-13T10:41:23.236Z,103005.38
2023-02-13T10:44:06.562Z,102990.31
2023-02-13T10:46:41.047Z,102988.53
2023-02-13T10:49:27.573Z,102979.63
2023-02-13T10:52:40.530Z,102974.22
2023-02-13T10:55:33.121Z,102981.25
2023-02-13T10:58:20.792Z,102987.41
2023-02-13T11:00:56.046Z,102972.28
2023-02-13T11:03:27.320Z,102961.59
2023-02-13T11:05:57.023Z,102977.44
2023-02-13T11:08:29.187Z,102973.84
2023-02-13T11:10:57.252Z,102959.53
2023-02-13T11:13:28.620Z,102959.47
2023-02-13T11:15:58.241Z,102961.22
2023-02-13T11:18:29.758Z,102952.22
2023-02-13T11:21:02.945Z,102957.53
2023-02-13T11:23:31.215Z,102952.16
2023-02-13T11:26:10.202Z,102949.38
2023-02-13T11:28:51.634Z,102955.56
2023-02-13T11:31:22.892Z,102942.13
2023-02-13T11:33:51.445Z,102945.56
2023-02-13T11:36:33.910Z,102942.06
2023-02-13T11:39:05.534Z,102944.72
2023-02-13T11:41:41.608Z,102934.94
2023-02-13T11:44:26.871Z,102933.25
2023-02-13T11:46:57.122Z,102927.06
2023-02-13T11:49:28.334Z,102934.25
2023-02-13T11:51:58.582Z,102924.50
2023-02-13T11:54:36.795Z,102923.59
2023-02-13T11:57:24.861Z,102924.50
2023-02-13T11:59:54.047Z,102923.66
2023-02-13T12:02:28.430Z,102917.56
2023-02-13T12:05:16.913Z,102917.16
2023-02-13T12:07:45.991Z,102917.41
2023-02-13T12:10:24.508Z,102920.09
2023-02-13T12:13:03.175Z,102912.19
2023-02-13T12:15:37.293Z,102919.25
2023-02-13T12:18:23.054Z,102913.13
2023-02-13T12:21:03.644Z,102912.19
2023-02-13T12:23:40.842Z,102898.56
2023-02-13T12:26:45.730Z,102904.50
2023-02-13T12:29:37.738Z,102887.44
2023-02-13T12:32:22.528Z,102890.06
2023-02-13T12:35:13.391Z,102885.59
2023-02-13T12:37:47.573Z,102878.53
2023-02-13T12:40:21.360Z,102870.56
2023-02-13T12:43:03.724Z,102875.03
2023-02-13T12:45:31.804Z,102879.44
2023-02-13T12:48:03.073Z,102877.72
2023-02-13T12:50:39.949Z,102872.44
2023-02-13T12:53:42.597Z,102869.84
2023-02-13T12:56:32.108Z,102868.06
2023-02-13T12:59:22.247Z,102857.47
2023-02-13T13:02:21.679Z,102861.00
2023-02-13T13:05:12.660Z,102860.16
2023-02-13T13:07:52.601Z,102845.97
2023-02-13T13:10:27.538Z,102851.38
2023-02-13T13:13:14.311Z,102853.16
2023-02-13T13:16:08.360Z,102853.19
2023-02-13T13:18:58.776Z,102847.88
2023-02-13T13:21:33.430Z,102853.22
2023-02-13T13:24:08.681Z,102845.22
2023-02-13T13:26:42.630Z,102845.25
2023-02-13T13:29:19.642Z,102839.03
2023-02-13T13:32:08.795Z,102844.38
2023-02-13T13:34:39.553Z,102831.97
2023-02-13T13:37:17.440Z,102837.31
2023-02-13T13:40:04.052Z,102836.41
2023-02-13T13:42:55.605Z,102838.19
2023-02-13T13:45:35.982Z,102838.19
2023-02-13T13:48:43.729Z,102835.59
2023-02-13T13:51:15.134Z,102836.47
2023-02-13T13:54:01.855Z,102833.81
2023-02-13T13:57:08.872Z,102827.59
2023-02-13T13:59:37.243Z,102825.84
2023-02-13T14:02:17.283Z,102836.47
2023-02-13T14:05:04.485Z,102824.03
2023-02-13T14:07:37.763Z,102826.72
2023-02-13T14:10:07.584Z,102824.94
2023-02-13T14:12:37.351Z,102822.28
2023-02-13T14:15:26.233Z,102816.91
2023-02-13T14:17:55.069Z,102812.53
2023-02-13T14:20:36.987Z,102813.38
2023-02-13T14:23:17.267Z,102816.91
2023-02-13T14:25:45.878Z,102801.84
2023-02-13T14:28:24.147Z,102798.34
2023-02-13T14:31:04.514Z,102798.34
2023-02-13T14:33:33.090Z,102804.53
2023-02-13T14:36:17.758Z,102800.97
2023-02-13T14:39:08.318Z,102802.78
2023-02-13T14:41:51.870Z,102803.69
2023-02-13T14:44:51.505Z,102800.09
2023-02-13T14:47:33.692Z,102798.34
2023-02-13T14:50:04.732Z,102798.38
2023-02-13T14:52:40.655Z,102802.81
2023-02-13T14:55:14.067Z,102803.72
2023-02-13T14:57:49.876Z,102786.91
2023-02-13T15:00:55.301Z,102794.00
2023-02-13T15:03:38.683Z,102791.38
2023-02-13T15:06:27.956Z,102792.22
2023-02-13T15:08:57.046Z,102789.63
2023-02-13T15:11:43.152Z,102784.31
2023-02-13T15:14:31.970Z,102793.16
2023-02-13T15:17:07.148Z,102792.31
2023-02-13T15:19:38.007Z,102782.59
2023-02-13T15:22:07.363Z,102780.84
2023-02-13T15:24:46.674Z,102787.94
2023-02-13T15:27:42.552Z,102784.41
2023-02-13T15:30:23.995Z,102781.75
2023-02-13T15:32:57.639Z,102786.19
2023-02-13T15:35:39.229Z,102780.91
2023-02-13T15:38:33.308Z,102780.03
2023-02-13T15:41:09.284Z,102774.75
2023-02-13T15:43:39.958Z,102785.38
2023-02-13T15:46:34.013Z,102780.97
2023-02-13T15:49:07.028Z,102777.44
2023-02-13T15:51:35.648Z,102779.22
2023-02-13T15:54:06.797Z,102772.16
2023-02-13T15:56:35.740Z,102781.91
2023-02-13T15:59:03.946Z,102779.28
2023-02-13T16:01:32.510Z,102777.53
2023-02-13T16:04:04.295Z,102778.44
2023-02-13T16:06:33.601Z,102786.41
2023-02-13T16:09:02.370Z,102785.53
2023-02-13T16:11:40.630Z,102782.78
2023-02-13T16:14:21.490Z,102780.94
2023-02-13T16:17:04.288Z,102784.38
2023-02-13T16:19:42.880Z,102775.47
2023-02-13T16:22:31.393Z,102778.00
2023-02-13T16:25:38.651Z,102784.97
2023-02-13T16:28:10.162Z,102785.81
2023-02-13T16:30:43.688Z,102791.13
2023-02-13T16:33:14.811Z,102797.16
2023-02-13T16:35:57.046Z,102785.59
2023-02-13T16:38:35.388Z,102787.31
2023-02-13T16:41:06.133Z,102796.06
2023-02-13T16:43:42.988Z,102790.72
2023-02-13T16:46:19.867Z,102792.53
2023-02-13T16:48:57.365Z,102786.97
2023-02-13T16:51:37.549Z,102791.41
2023-02-13T16:54:22.824Z,102799.38
2023-02-13T16:56:57.279Z,102801.91
2023-02-13T16:59:25.530Z,102803.53
2023-02-13T17:02:15.132Z,102808.72
2023-02-13T17:05:06.563Z,102811.34
2023-02-13T17:07:51.376Z,102809.63
2023-02-13T17:10:35.556Z,102804.16
2023-02-13T17:13:17.737Z,102814.59
2023-02-13T17:15:47.906Z,102807.31
2023-02-13T17:18:16.022Z,102808.09
2023-02-13T17:20:45.909Z,102808.09
2023-02-13T17:23:18.753Z,102813.31
2023-02-13T17:25:48.524Z,102803.44
2023-02-13T17:28:21.185Z,102821.16
2023-02-13T17:30:51.849Z,102813.91
2023-02-13T17:33:21.357Z,102817.63
2023-02-13T17:35:49.956Z,102816.81
2023-02-13T17:38:17.944Z,102823.94
2023-02-13T17:40:46.973Z,102824.84
2023-02-13T17:43:17.427Z,102825.03
2023-02-13T17:45:46.451Z,102823.38
2023-02-13T17:48:14.546Z,102824.34
2023-02-13T17:50:43.216Z,102829.75
2023-02-13T17:53:37.604Z,102823.53
2023-02-13T17:56:05.873Z,102830.72
2023-02-13T17:58:33.958Z,102825.41
2023-02-13T18:01:02.642Z,102828.97
2023-02-13T18:03:31.079Z,102830.00
2023-02-13T18:05:59.478Z,102832.50
2023-02-13T18:08:27.450Z,102831.63
2023-02-13T18:10:55.679Z,102835.06
2023-02-13T18:13:23.696Z,102832.34
2023-02-13T18:15:52.494Z,102828.81
2023-02-13T18:18:20.642Z,102837.50
2023-02-13T18:20:55.968Z,102837.19
2023-02-13T18:23:24.140Z,102835.41
2023-02-13T18:25:52.592Z,102835.34
2023-02-13T18:28:20.593Z,102839.00
2023-02-13T18:30:49.027Z,102838.91
2023-02-13T18:33:17.138Z,102837.25
2023-02-13T18:35:45.492Z,102838.16
2023-02-13T18:38:13.483Z,102837.50
2023-02-13T18:40:41.765Z,102835.75
2023-02-13T18:43:09.938Z,102833.13
2023-02-13T18:45:38.943Z,102831.56
2023-02-13T18:48:09.262Z,102844.00
2023-02-13T18:50:42.015Z,102841.47
2023-02-13T18:53:10.411Z,102838.88
2023-02-13T18:55:39.379Z,102838.00
2023-02-13T18:58:08.789Z,102840.66
2023-02-13T19:00:37.392Z,102846.91
2023-02-13T19:03:05.630Z,102847.91
2023-02-13T19:05:34.252Z,102841.72
2023-02-13T19:08:02.495Z,102843.53
2023-02-13T19:10:31.510Z,102845.31
2023-02-13T19:12:59.775Z,102854.25
2023-02-13T19:15:28.370Z,102845.44
2023-02-13T19:17:57.631Z,102856.13
2023-02-13T19:20:26.208Z,102859.72
2023-02-13T19:22:55.322Z,102850.03
2023-02-13T19:25:23.834Z,102847.44
2023-02-13T19:27:52.033Z,102858.13
2023-02-13T19:30:20.817Z,102856.38
2023-02-13T19:32:49.051Z,102844.84
2023-02-13T19:35:17.894Z,102856.34
2023-02-13T19:37:46.102Z,102858.09
2023-02-13T19:40:14.670Z,102854.47
2023-02-13T19:42:42.924Z,102865.97
2023-02-13T19:45:11.879Z,102857.84
2023-02-13T19:47:40.067Z,102865.00
2023-02-13T19:50:09.654Z,102865.75
2023-02-13T19:52:38.206Z,102859.34
2023-02-13T19:55:07.332Z,102866.38
2023-02-13T19:57:36.123Z,102871.63
2023-02-13T20:00:05.725Z,102864.56
2023-02-13T20:02:40.260Z,102875.25
2023-02-13T20:05:09.781Z,102876.00
2023-02-13T20:07:38.096Z,102878.84
2023-02-13T20:10:09.910Z,102881.47
2023-02-13T20:12:38.573Z,102869.91
2023-02-13T20:15:07.833Z,102875.31
2023-02-13T20:17:38.277Z,102871.78
2023-02-13T20:20:09.137Z,102875.31
2023-02-13T20:22:37.744Z,102889.56
2023-02-13T20:25:06.980Z,102891.41
2023-02-13T20:30:16.214Z,102889.66
2023-02-13T20:32:44.777Z,102890.59
2023-02-13T20:35:13.519Z,102887.03
2023-02-13T20:37:42.988Z,102891.50
2023-02-13T20:40:12.535Z,102888.00
2023-02-13T20:42:41.418Z,102899.59
2023-02-13T20:45:10.699Z,102888.97
2023-02-13T20:47:40.921Z,102885.47
2023-02-13T20:50:12.384Z,102895.25
2023-02-13T20:52:42.350Z,102884.72
2023-02-13T20:55:12.223Z,102904.25
2023-02-13T20:57:41.775Z,102900.75
2023-02-13T21:00:14.419Z,102898.03
2023-02-13T21:02:42.913Z,102904.16
2023-02-13T21:05:11.784Z,102903.22
2023-02-13T21:07:42.717Z,102903.09
2023-02-13T21:10:13.076Z,102898.59
2023-02-13T21:12:43.940Z,102890.53
2023-02-13T21:15:15.525Z,102889.53
2023-02-13T21:17:45.774Z,102877.09
2023-02-13T21:20:14.550Z,102884.09
2023-02-13T21:22:42.952Z,102882.34
2023-02-13T21:25:15.065Z,102884.03
2023-02-13T21:27:43.470Z,102883.28
2023-02-13T21:30:12.750Z,102872.66
2023-02-13T21:32:42.430Z,102880.75
2023-02-13T21:35:11.103Z,102869.13
2023-02-13T21:37:39.606Z,102878.09
2023-02-13T21:40:09.098Z,102873.69
2023-02-13T21:42:38.225Z,102873.69
2023-02-13T21:45:07.215Z,102869.31
2023-02-13T21:47:35.540Z,102870.22
2023-02-13T21:50:07.709Z,102864.91
2023-02-13T21:52:36.030Z,102867.63
2023-02-13T21:55:06.498Z,102859.69
2023-02-13T21:57:35.568Z,102872.13
2023-02-13T22:00:06.680Z,102863.31
2023-02-13T22:02:40.811Z,102867.78
2023-02-13T22:05:09.361Z,102860.78
2023-02-13T22:07:57.496Z,102856.41
2023-02-13T22:10:25.994Z,102859.97
2023-02-13T22:12:54.225Z,102860.06
2023-02-13T22:15:23.167Z,102860.94
2023-02-13T22:17:51.287Z,102855.66
2023-02-13T22:20:22.406Z,102856.56
2023-02-13T22:22:50.529Z,102856.56
2023-02-13T22:25:19.003Z,102851.28
2023-02-13T22:27:48.131Z,102853.09
2023-02-13T22:30:16.850Z,102846.06
2023-02-13T22:32:45.018Z,102839.00
2023-02-13T22:35:13.443Z,102847.88
2023-02-13T22:37:41.540Z,102842.59
2023-02-13T22:40:10.319Z,102835.50
2023-02-13T22:42:38.476Z,102838.19
2023-02-13T22:45:07.618Z,102835.59
2023-02-13T22:47:35.718Z,102839.13
2023-02-13T22:50:04.353Z,102840.91
2023-02-13T22:52:32.490Z,102830.28
2023-02-13T22:55:00.974Z,102840.06
2023-02-13T22:57:29.108Z,102842.75
2023-02-13T22:59:57.605Z,102843.66
2023-02-13T23:02:25.951Z,102833.06
2023-02-13T23:04:54.506Z,102832.19
2023-02-13T23:07:22.742Z,102836.63
2023-02-13T23:09:51.223Z,102829.56
2023-02-13T23:12:38.955Z,102825.16
2023-02-13T23:15:10.754Z,102819.81
2023-02-13T23:17:57.399Z,102821.59
2023-02-13T23:20:26.822Z,102818.09
2023-02-13T23:22:55.069Z,102816.38
2023-02-13T23:25:23.731Z,102817.28
2023-02-13T23:27:53.866Z,102826.13
2023-02-13T23:30:23.110Z,102832.34
2023-02-13T23:32:51.708Z,102828.81
2023-02-13T23:35:20.734Z,102828.84
2023-02-13T23:37:48.855Z,102821.78
2023-02-13T23:40:17.482Z,102819.09
2023-02-13T23:42:45.643Z,102810.25
2023-02-13T23:45:14.259Z,102819.16
2023-02-13T23:47:42.344Z,102812.09
2023-02-13T23:50:11.002Z,102809.44
2023-02-13T23:52:39.294Z,102805.03
2023-02-13T23:55:08.004Z,102801.50
2023-02-13T23:57:36.253Z,102806.81
